OPA Logo
 
ASOS:
At:2020.01.27 0415 UTC
Wind:190° @ 7KT
Viz: 10 mile(s)
Sky: clear
Temp: 39 F (4 C)
DewP: 30 F (-1 C)
RH: 69%
Baro: 30.07 in.
ob: KBDN 270415Z AUTO 19007KT 10SM CLR 04/M01 A3007 RMK AO2

ASOS: KRDM
At:2020.01.27 0256 UTC
Wind:180° @ 6KT
Viz: 10 mile(s)
Sky: clear
Temp: 39.9 F (4.4 C)
DewP: 28.0 F (-2.2 C)
RH: 62%
Baro: 30.06 in.
ob: KRDM 270256Z AUTO 18006KT 10SM CLR 04/M02 A3006 RMK AO2 SLP187 T00441022 50005
Apache-SSL Logo

Valid HTML 4.01!

Central Oregon OPA Chapter

Chapter Officers 2006:

President
Gary E. Miller
109 NW Wilmington Ave.
Bend OR 97701
541 382-8588
gem@rellim.com

Vice President:
Open

Secretary/Treasurer:
Don Wilfong
210 SE Cessna Dr
Bend OR 97702
541 389-1456
dwnw@bendbroadband.com


Web page by: gem@rellim.com